| time (UTC) | temp F | wind direction | speed knots | gust knots | rain 1hr in | rain 24hr in | rain mn in | humidity % | barometer mb |
| 20260505221554 | 64 | 0.0 | 0.0 | 0.00 | 0.00 | 0.00 | 43 | 799.5 | |
| 20260505220132 | 64 | 0.0 | 0.0 | 0.00 | 0.00 | 0.00 | 42 | 798.7 | |
| 20260505214529 | 64 | 0.0 | 0.0 | 0.00 | 0.00 | 0.00 | 41 | 799.4 | |
| 20260505213018 | 65 | 0.0 | 0.0 | 0.00 | 0.00 | 0.00 | 40 | 798.6 | |
| 20260505211554 | 65 | 0.0 | 0.0 | 0.00 | 0.00 | 0.00 | 38 | 798.6 | |
| 20260505210044 | 66 | 0.0 | 0.0 | 0.00 | 0.00 | 0.00 | 36 | 798.5 | |
| 20260505204617 | 67 | 0.0 | 0.0 | 0.00 | 0.00 | 0.00 | 32 | 798.4 | |
| 20260505203018 | 68 | 0.0 | 0.0 | 0.00 | 0.00 | 0.00 | 27 | 798.2 | |
| 20260505201553 | 69 | 0.0 | 0.0 | 0.00 | 0.00 | 0.00 | 21 | 798.8 | |
| 20260505200058 | 68 | 0.0 | 0.0 | 0.00 | 0.00 | 0.00 | 19 | 797.2 | |
| 20260505194617 | 67 | 0.0 | 0.0 | 0.00 | 0.00 | 0.00 | 21 | 797.0 | |
| 20260505193018 | 67 | 0.0 | 0.0 | 0.00 | 0.00 | 0.00 | 23 | 797.0 | |
| 20260505191554 | 68 | 0.0 | 0.0 | 0.00 | 0.00 | 0.00 | 22 | 797.8 | |
| 20260505190044 | 69 | 0.0 | 0.0 | 0.00 | 0.00 | 0.00 | 18 | 797.0 | |
| 20260505184529 | 71 | 0.0 | 0.0 | 0.00 | 0.00 | 0.00 | 16 | 796.1 | |
| 20260505183018 | 72 | 0.0 | 0.0 | 0.00 | 0.00 | 0.00 | 13 | 796.1 | |
| 20260505181554 | 73 | 0.0 | 0.0 | 0.00 | 0.00 | 0.00 | 11 | 795.3 | |
| 20260505180044 | 74 | 0.0 | 0.0 | 0.00 | 0.00 | 0.00 | 11 | 794.5 | |
| 20260505174529 | 75 | 0.0 | 0.0 | 0.00 | 0.00 | 0.00 | 794.6 | ||
| 20260505173154 | 76 | 0.0 | 0.0 | 0.00 | 0.00 | 0.00 | 794.6 | ||
| 20260505171643 | 77 | 0.0 | 0.0 | 0.00 | 0.00 | 0.00 | 792.9 | ||
| 20260505170045 | 78 | 0.0 | 0.0 | 0.00 | 0.00 | 0.00 | 790.7 | ||
| 20260505164535 | 79 | 0.0 | 0.0 | 0.00 | 0.00 | 0.00 | 789.1 | ||
| 20260505163242 | 80 | 0.0 | 0.0 | 0.00 | 0.00 | 0.00 | 785.5 | ||
| 20260505161554 | 80 | 0.0 | 0.0 | 0.00 | 0.00 | 0.00 | 784.1 | ||
| 20260505153018 | 82 | 0.0 | 0.0 | 0.00 | 0.00 | 0.00 | 784.8 | ||
| 20260505151554 | 81 | 0.0 | 0.0 | 0.00 | 0.00 | 0.00 | 782.5 | ||
| 20260505124618 | 82 | 0.0 | 0.0 | 0.00 | 0.00 | 0.00 | 11 | 788.5 | |
| 20260505123023 | 81 | 0.0 | 0.0 | 0.00 | 0.00 | 0.00 | 12 | 788.7 | |
| 20260505121554 | 81 | 0.0 | 0.0 | 0.00 | 0.00 | 0.00 | 13 | 788.0 | |
| 20260505120045 | 80 | 0.0 | 0.0 | 0.00 | 0.00 | 0.00 | 14 | 788.1 | |
| 20260505114531 | 79 | 0.0 | 0.0 | 0.00 | 0.00 | 0.00 | 13 | 789.0 | |
| 20260505113018 | 79 | 0.0 | 0.0 | 0.00 | 0.00 | 0.00 | 14 | 786.9 | |
| 20260505111553 | 78 | 0.0 | 0.0 | 0.00 | 0.00 | 0.00 | 16 | 786.2 | |
| 20260505101554 | 75 | 0.0 | 0.0 | 0.00 | 0.00 | 0.00 | 21 | 785.8 | |
| 20260505100044 | 74 | 0.0 | 0.0 | 0.00 | 0.00 | 0.00 | 22 | 785.1 | |
| 20260505094618 | 73 | 0.0 | 0.0 | 0.00 | 0.00 | 0.00 | 24 | 785.2 | |
| 20260505093018 | 72 | 0.0 | 0.0 | 0.00 | 0.00 | 0.00 | 26 | 784.5 | |
| 20260505091554 | 72 | 0.0 | 0.0 | 0.00 | 0.00 | 0.00 | 27 | 784.5 | |
| 20260505090044 | 71 | 0.0 | 0.0 | 0.00 | 0.00 | 0.00 | 29 | 784.6 | |
| 20260505084530 | 70 | 0.0 | 0.0 | 0.00 | 0.00 | 0.00 | 30 | 784.6 | |
| 20260505083018 | 69 | 0.0 | 0.0 | 0.00 | 0.00 | 0.00 | 31 | 784.8 | |
| 20260505081554 | 68 | 0.0 | 0.0 | 0.00 | 0.00 | 0.00 | 33 | 783.2 | |
| 20260505080044 | 67 | 0.0 | 0.0 | 0.00 | 0.00 | 0.00 | 33 | 783.3 | |
| 20260505074530 | 66 | 0.0 | 0.0 | 0.00 | 0.00 | 0.00 | 33 | 783.3 | |
| 20260505073018 | 65 | 0.0 | 0.0 | 0.00 | 0.00 | 0.00 | 36 | 782.5 | |
| 20260505071554 | 64 | 0.0 | 0.0 | 0.00 | 0.00 | 0.00 | 38 | 781.8 | |
| 20260505070044 | 63 | 0.0 | 0.0 | 0.00 | 0.00 | 0.00 | 44 | 780.3 | |
| 20260505064530 | 61 | 0.0 | 0.0 | 0.00 | 0.00 | 0.00 | 48 | 778.0 | |
| 20260505063018 | 59 | 0.0 | 0.0 | 0.00 | 0.00 | 0.00 | 53 | 775.7 | |
| 20260505061642 | 58 | 0.0 | 0.0 | 0.00 | 0.00 | 0.00 | 58 | 775.8 | |
| 20260505060044 | 55 | 0.0 | 0.0 | 0.00 | 0.00 | 0.00 | 64 | 773.4 | |
| 20260505054530 | 53 | 0.0 | 0.0 | 0.00 | 0.00 | 0.00 | 68 | 772.7 | |
| 20260505053018 | 52 | 0.0 | 0.0 | 0.00 | 0.00 | 0.00 | 70 | 772.6 | |
| 20260505051642 | 52 | 0.0 | 0.0 | 0.00 | 0.00 | 0.00 | 70 | 772.7 | |
| 20260505050132 | 51 | 0.0 | 0.0 | 0.00 | 0.00 | 0.00 | 70 | 772.6 | |
| 20260505041641 | 50 | 0.0 | 0.0 | 0.00 | 0.00 | 0.00 | 69 | 773.3 | |
| 20260505040044 | 50 | 0.0 | 0.0 | 0.00 | 0.00 | 0.00 | 68 | 774.0 | |
| 20260505034906 | 50 | 0.0 | 0.0 | 0.00 | 0.00 | 0.00 | 67 | 775.6 | |
| 20260505033106 | 51 | 0.0 | 0.0 | 0.00 | 0.00 | 0.00 | 67 | 775.6 | |
| 20260505031553 | 51 | 0.0 | 0.0 | 0.00 | 0.00 | 0.00 | 66 | 776.5 | |
| 20260505030044 | 51 | 0.0 | 0.0 | 0.00 | 0.00 | 0.00 | 66 | 777.2 | |
| 20260505024617 | 52 | 0.0 | 0.0 | 0.00 | 0.00 | 0.00 | 64 | 778.0 | |
| 20260505023018 | 52 | 0.0 | 0.0 | 0.00 | 0.00 | 0.00 | 64 | 778.8 | |
| 20260505021553 | 52 | 0.0 | 0.0 | 0.00 | 0.00 | 0.00 | 62 | 779.6 | |
| 20260505020132 | 53 | 0.0 | 0.0 | 0.00 | 0.00 | 0.00 | 61 | 780.5 | |
| 20260505014617 | 53 | 0.0 | 0.0 | 0.00 | 0.00 | 0.00 | 60 | 782.1 | |
| 20260505013154 | 53 | 0.0 | 0.0 | 0.00 | 0.00 | 0.00 | 58 | 782.9 | |
| 20260505011553 | 53 | 0.0 | 0.0 | 0.00 | 0.00 | 0.00 | 56 | 784.4 | |
| 20260505010132 | 53 | 0.0 | 0.0 | 0.00 | 0.00 | 0.00 | 56 | 786.0 | |
| 20260505004529 | 53 | 0.0 | 0.0 | 0.00 | 0.00 | 0.00 | 56 | 787.6 | |
| 20260505003106 | 54 | 0.0 | 0.0 | 0.00 | 0.00 | 0.00 | 56 | 790.6 | |
| 20260505001553 | 54 | 0.0 | 0.0 | 0.00 | 0.00 | 0.00 | 60 | 792.1 | |
| 20260505000044 | 54 | 0.0 | 0.0 | 0.00 | 0.00 | 0.00 | 58 | 792.0 | |
| 20260504234707 | 54 | 0.0 | 0.0 | 0.00 | 0.00 | 0.00 | 55 | 792.0 | |
| 20260504233017 | 54 | 0.0 | 0.0 | 0.00 | 0.00 | 0.00 | 54 | 792.1 | |
| 20260504231553 | 55 | 0.0 | 0.0 | 0.00 | 0.00 | 0.00 | 52 | 792.1 | |
| 20260504230044 | 55 | 0.0 | 0.0 | 0.00 | 0.00 | 0.00 | 50 | 792.0 | |
| 20260504224529 | 56 | 0.0 | 0.0 | 0.00 | 0.00 | 0.00 | 49 | 792.1 | |
| 20260504223017 | 56 | 0.0 | 0.0 | 0.00 | 0.00 | 0.00 | 47 | 792.1 |